Time;durP1;ratioP1;P1;durP2;ratioP2;P2;SDS_P1;SDS_P2;PMS_P1;PMS_P2;Temp;Humidity;BMP_temperature;BMP_pressure;BME280_temperature;BME280_humidity;BME280_pressure;Samples;Min_cycle;Max_cycle;Signal;HPM_P1;HPM_P2
2021/07/14 00:00:38;;;;;;;30.05;15.80;;;;;;;23.19;63.82;101001.66;4910312;28;123414;-63
2021/07/14 00:03:05;;;;;;;27.60;15.70;;;;;;;23.19;63.83;100996.25;4921166;28;123489;-63
2021/07/14 00:05:32;;;;;;;28.25;15.57;;;;;;;23.20;63.81;100991.69;4916466;28;115954;-63
2021/07/14 00:08:00;;;;;;;26.30;14.80;;;;;;;23.18;63.82;100982.88;4916563;28;115087;-63
2021/07/14 00:10:30;;;;;;;27.45;15.45;;;;;;;23.15;63.76;100984.03;4922540;28;123880;-63
2021/07/14 00:13:06;;;;;;;28.42;15.45;;;;;;;23.15;63.93;100985.88;4916934;28;123153;-63
2021/07/14 00:23:35;;;;;;;25.90;14.30;;;;;;;23.08;63.83;100967.56;4918294;28;124182;-63
2021/07/14 00:26:03;;;;;;;28.38;15.38;;;;;;;23.08;64.02;100967.56;4921097;28;113295;-63
2021/07/14 00:28:33;;;;;;;28.38;14.90;;;;;;;23.06;63.85;100958.75;4923760;28;113808;-63
2021/07/14 00:31:02;;;;;;;27.17;14.90;;;;;;;23.05;63.86;100957.03;4926305;28;122565;-63
2021/07/14 00:33:30;;;;;;;27.02;14.80;;;;;;;23.06;63.88;100955.22;4925936;28;124203;-63
2021/07/14 00:35:58;;;;;;;27.33;14.70;;;;;;;23.07;63.85;100954.19;4920726;28;114361;-63
2021/07/14 00:38:25;;;;;;;25.05;14.38;;;;;;;23.06;64.02;100953.34;4917817;28;114496;-63
2021/07/14 00:40:52;;;;;;;26.95;15.45;;;;;;;23.07;64.00;100955.03;4919367;28;124026;-63
2021/07/14 00:43:19;;;;;;;29.77;15.32;;;;;;;23.09;63.87;100958.47;4917497;28;124014;-63
2021/07/14 00:45:46;;;;;;;25.88;14.38;;;;;;;23.09;63.95;100963.00;4923339;28;114020;-63
2021/07/14 00:48:17;;;;;;;30.05;15.10;;;;;;;23.07;64.02;100965.84;4913618;28;113437;-63
2021/07/14 00:50:44;;;;;;;25.92;13.82;;;;;;;23.06;63.99;100964.16;4918342;28;123323;-63
2021/07/14 00:53:11;;;;;;;24.63;14.18;;;;;;;23.07;63.98;100960.44;4919740;28;124313;-64
2021/07/14 00:55:38;;;;;;;26.35;14.63;;;;;;;23.07;63.90;100960.44;4915152;28;114592;-63
2021/07/14 00:58:06;;;;;;;26.02;14.38;;;;;;;23.09;64.00;100958.47;4917768;28;115076;-63
2021/07/14 01:00:33;;;;;;;25.75;14.13;;;;;;;23.07;63.90;100949.63;4906666;28;124018;-64
2021/07/14 01:03:00;;;;;;;26.17;14.07;;;;;;;23.07;64.00;100960.44;4918940;28;124728;-63
2021/07/14 01:05:40;;;;;;;25.27;14.43;;;;;;;23.07;64.04;100971.25;4914811;28;115102;-63
2021/07/14 01:08:13;;;;;;;26.52;14.75;;;;;;;23.09;63.89;100974.69;4921889;28;114161;-64
2021/07/14 01:10:46;;;;;;;25.38;13.85;;;;;;;23.09;63.96;100990.88;4919787;28;124744;-63
2021/07/14 01:13:25;;;;;;;24.17;13.80;;;;;;;23.11;64.05;100988.88;4918409;28;123918;-63
2021/07/14 01:16:02;;;;;;;26.02;14.32;;;;;;;23.11;63.96;100988.88;4921608;28;114313;-63
2021/07/14 01:18:37;;;;;;;24.65;14.18;;;;;;;23.11;63.90;100978.06;4923536;28;114392;-63
2021/07/14 01:21:32;;;;;;;28.40;14.13;;;;;;;23.07;63.84;100979.34;4919531;28;125618;-63
2021/07/14 01:24:02;;;;;;;24.27;14.55;;;;;;;23.07;63.91;100982.06;4922912;28;124603;-64
2021/07/14 01:26:36;;;;;;;28.27;14.18;;;;;;;23.08;63.97;100983.75;4916819;28;114307;-64
2021/07/14 01:29:06;;;;;;;25.42;14.00;;;;;;;23.09;63.95;100990.88;4916520;28;114532;-63
2021/07/14 01:31:35;;;;;;;25.17;13.15;;;;;;;23.10;63.84;100992.56;4918630;28;124114;-63
2021/07/14 01:34:06;;;;;;;26.10;14.55;;;;;;;23.10;63.92;100997.97;4917904;28;124021;-63
2021/07/14 01:36:36;;;;;;;23.23;13.68;;;;;;;23.13;63.97;100997.69;4917746;28;114643;-63
2021/07/14 01:39:05;;;;;;;26.50;14.60;;;;;;;23.14;63.93;100987.72;4915798;28;114082;-63
2021/07/14 01:41:36;;;;;;;25.67;14.57;;;;;;;23.15;63.83;100988.56;4918946;28;124125;-63
2021/07/14 01:44:04;;;;;;;28.80;14.20;;;;;;;23.13;63.72;100981.47;4897840;28;123701;-64
2021/07/14 01:46:35;;;;;;;25.17;13.88;;;;;;;23.12;63.63;100985.16;4913733;28;115702;-64
2021/07/14 01:49:07;;;;;;;24.70;14.15;;;;;;;23.11;63.71;100978.06;4919061;28;115224;-64
2021/07/14 01:51:41;;;;;;;25.13;13.93;;;;;;;23.10;63.81;100976.34;4919276;28;124716;-64
2021/07/14 01:54:12;;;;;;;23.25;13.43;;;;;;;23.09;63.77;100971.09;4917888;28;124600;-64
2021/07/14 01:56:40;;;;;;;26.05;14.30;;;;;;;23.07;63.57;100971.25;4909985;28;114353;-64
2021/07/14 01:59:10;;;;;;;26.15;14.50;;;;;;;23.05;63.81;100973.25;4919802;28;114126;-64
2021/07/14 02:01:41;;;;;;;26.48;14.23;;;;;;;23.03;63.86;100964.44;4921671;28;124151;-64
2021/07/14 02:04:30;;;;;;;23.13;14.38;;;;;;;23.03;63.88;100959.03;4921678;28;124259;-64
2021/07/14 02:07:03;;;;;;;27.23;14.05;;;;;;;23.02;63.69;100957.31;4919508;28;114272;-63
2021/07/14 02:09:33;;;;;;;25.75;14.18;;;;;;;23.00;63.85;100953.91;4923296;28;113025;-63
2021/07/14 02:12:02;;;;;;;27.83;13.80;;;;;;;23.01;63.90;100955.59;4916034;28;124160;-64
2021/07/14 02:14:34;;;;;;;24.08;13.57;;;;;;;23.02;63.90;100951.91;4916078;28;124206;-63
2021/07/14 02:17:04;;;;;;;24.25;13.48;;;;;;;23.02;63.93;100951.91;4916076;28;113689;-64
2021/07/14 02:19:35;;;;;;;25.08;13.57;;;;;;;23.01;63.71;100949.34;4921613;28;114105;-63
2021/07/14 02:22:03;;;;;;;25.48;13.23;;;;;;;23.00;63.69;100953.03;4923772;28;124158;-64
2021/07/14 02:24:33;;;;;;;23.30;13.48;;;;;;;22.99;63.91;100952.19;4927224;28;124347;-64
2021/07/14 02:27:06;;;;;;;24.63;13.95;;;;;;;22.99;63.85;100946.78;4923969;28;114811;-63
2021/07/14 02:29:38;;;;;;;24.58;12.75;;;;;;;22.98;63.80;100949.63;4921014;28;114036;-63
2021/07/14 02:32:08;;;;;;;25.02;13.15;;;;;;;22.97;63.77;100954.19;4923534;28;126518;-64
2021/07/14 02:34:35;;;;;;;23.25;12.95;;;;;;;22.96;63.95;100951.63;4918647;28;123798;-63
2021/07/14 02:37:05;;;;;;;25.73;13.30;;;;;;;22.97;63.94;100958.75;4918348;28;116228;-63
2021/07/14 02:39:33;;;;;;;25.00;13.43;;;;;;;22.96;64.03;100952.47;4925929;28;114528;-63
2021/07/14 02:42:07;;;;;;;23.63;13.65;;;;;;;22.97;64.04;100954.19;4918489;28;124207;-63
2021/07/14 02:44:39;;;;;;;21.42;12.75;;;;;;;22.97;64.07;100959.59;4917563;28;124187;-63
2021/07/14 02:47:07;;;;;;;24.20;12.85;;;;;;;22.96;63.99;100957.88;4920279;28;114174;-63
2021/07/14 02:49:38;;;;;;;21.63;13.10;;;;;;;22.97;63.99;100962.31;4924838;28;114165;-63
2021/07/14 02:52:09;;;;;;;21.30;13.18;;;;;;;22.96;63.93;100952.47;4925998;28;124221;-63
2021/07/14 02:54:39;;;;;;;23.55;14.10;;;;;;;22.96;64.17;100952.47;4916204;28;124341;-63
2021/07/14 02:57:10;;;;;;;22.85;13.13;;;;;;;22.97;64.07;100951.50;4928073;28;114188;-63
2021/07/14 02:59:39;;;;;;;26.55;14.38;;;;;;;22.97;64.17;100946.09;4926108;28;114207;-63
2021/07/14 03:02:08;;;;;;;26.48;13.82;;;;;;;22.95;64.22;100940.00;4917940;28;123107;-63
2021/07/14 03:04:40;;;;;;;22.80;13.75;;;;;;;22.94;64.28;100941.84;4913174;28;123851;-63
2021/07/14 03:07:08;;;;;;;21.33;13.25;;;;;;;22.93;64.33;100944.69;4912834;28;114547;-64
2021/07/14 03:09:45;;;;;;;22.80;13.73;;;;;;;22.88;64.32;100939.72;4920441;28;112919;-63
2021/07/14 03:12:15;;;;;;;20.92;12.77;;;;;;;22.86;64.39;100946.28;4921375;28;125075;-63
2021/07/14 03:14:50;;;;;;;22.98;13.77;;;;;;;22.84;64.46;100945.56;4929201;28;124871;-63
2021/07/14 03:17:18;;;;;;;24.73;12.68;;;;;;;22.83;64.44;100946.56;4926166;28;113135;-63
2021/07/14 03:19:47;;;;;;;21.90;12.48;;;;;;;22.81;64.58;100946.72;4919602;28;113893;-63
2021/07/14 03:22:15;;;;;;;19.23;11.57;;;;;;;22.79;64.61;100950.53;4921691;28;124065;-63
2021/07/14 03:24:44;;;;;;;22.70;12.25;;;;;;;22.78;64.66;100948.88;4920647;28;124017;-63
2021/07/14 03:27:13;;;;;;;17.85;11.13;;;;;;;22.74;64.73;100943.75;4917192;28;115644;-63
2021/07/14 03:29:41;;;;;;;20.33;11.68;;;;;;;22.74;64.80;100941.03;4918338;28;115087;-64
2021/07/14 03:32:10;;;;;;;17.33;11.23;;;;;;;22.73;64.95;100941.19;4899512;28;123335;-63
2021/07/14 03:34:38;;;;;;;18.50;10.98;;;;;;;22.71;64.82;100944.03;4899202;28;122875;-63
2021/07/14 03:37:07;;;;;;;18.77;10.68;;;;;;;22.69;65.08;100935.22;4920959;28;114556;-63
2021/07/14 03:39:37;;;;;;;18.80;11.13;;;;;;;22.66;64.87;100935.53;4917128;28;114666;-64
2021/07/14 03:42:07;;;;;;;18.65;11.50;;;;;;;22.65;65.14;100939.22;4921739;28;123172;-64
2021/07/14 03:44:36;;;;;;;17.88;10.93;;;;;;;22.64;65.02;100937.53;4915027;28;123789;-64
2021/07/14 03:47:04;;;;;;;18.55;10.80;;;;;;;22.64;65.05;100926.72;4927081;28;114447;-64
2021/07/14 03:49:34;;;;;;;18.65;10.68;;;;;;;22.62;64.80;100934.13;4925235;28;113833;-63
2021/07/14 03:52:01;;;;;;;19.55;10.90;;;;;;;22.61;65.16;100932.41;4923675;28;124252;-63
2021/07/14 03:54:30;;;;;;;18.85;10.55;;;;;;;22.60;65.16;100936.09;4909725;28;124206;-63
2021/07/14 03:56:59;;;;;;;17.45;10.57;;;;;;;22.58;65.14;100927.28;4922569;28;113981;-63
2021/07/14 03:59:26;;;;;;;18.77;10.77;;;;;;;22.57;65.13;100933.69;4922591;28;114102;-64
2021/07/14 04:01:54;;;;;;;16.75;10.88;;;;;;;22.57;65.32;100947.19;4921546;28;124118;-63
2021/07/14 04:04:22;;;;;;;17.50;10.07;;;;;;;22.56;65.24;100934.69;4923172;28;123859;-63
2021/07/14 04:07:01;;;;;;;18.55;11.07;;;;;;;22.53;65.26;100924.19;4924317;28;114764;-64
2021/07/14 04:09:28;;;;;;;19.52;10.95;;;;;;;22.55;65.21;100922.19;4923521;28;113822;-64
2021/07/14 04:12:00;;;;;;;17.52;10.93;;;;;;;22.55;65.36;100927.59;4928817;28;124839;-64
2021/07/14 04:14:29;;;;;;;17.60;10.13;;;;;;;22.55;65.47;100933.84;4918407;28;125263;-64
2021/07/14 04:16:57;;;;;;;18.90;10.73;;;;;;;22.55;65.21;100933.00;4917061;28;115077;-64
2021/07/14 04:19:26;;;;;;;17.42;11.27;;;;;;;22.53;65.36;100929.59;4912025;28;114959;-64
2021/07/14 04:21:53;;;;;;;17.30;11.23;;;;;;;22.52;65.33;100933.28;4924286;28;123945;-64
2021/07/14 04:24:20;;;;;;;18.75;10.90;;;;;;;22.51;65.39;100926.19;4917299;28;123686;-64
2021/07/14 04:26:49;;;;;;;16.30;10.65;;;;;;;22.51;65.45;100931.59;4911857;28;114342;-63
2021/07/14 04:29:17;;;;;;;15.65;10.45;;;;;;;22.52;65.64;100927.88;4923405;28;114345;-64
2021/07/14 04:31:44;;;;;;;17.40;10.25;;;;;;;22.52;65.34;100922.47;4921229;28;124052;-64
2021/07/14 04:34:12;;;;;;;16.75;10.38;;;;;;;22.51;65.49;100928.88;4916852;28;124119;-64
2021/07/14 04:36:41;;;;;;;17.73;10.13;;;;;;;22.50;65.51;100924.47;4918534;28;114359;-64
2021/07/14 04:39:09;;;;;;;14.35;9.98;;;;;;;22.49;65.51;100918.22;4915984;28;114435;-64
2021/07/14 04:41:37;;;;;;;16.10;10.00;;;;;;;22.47;65.50;100920.22;4919900;28;123478;-64
2021/07/14 04:44:06;;;;;;;15.10;10.52;;;;;;;22.44;65.68;100919.66;4922631;28;124284;-64
2021/07/14 04:46:34;;;;;;;17.17;10.80;;;;;;;22.42;65.67;100922.50;4918540;28;114297;-63
2021/07/14 04:49:07;;;;;;;16.52;11.20;;;;;;;22.42;65.71;100921.66;4911739;28;114224;-64
2021/07/14 04:51:35;;;;;;;20.80;11.85;;;;;;;22.41;65.80;100925.34;4915110;28;124052;-64
2021/07/14 04:54:02;;;;;;;17.73;10.90;;;;;;;22.40;65.91;100926.34;4918135;28;124311;-63
2021/07/14 04:56:29;;;;;;;18.50;11.77;;;;;;;22.40;65.89;100929.88;4926319;28;115177;-64
2021/07/14 04:58:57;;;;;;;20.73;12.48;;;;;;;22.41;65.94;100942.38;4912460;28;113765;-64
2021/07/14 05:01:24;;;;;;;21.67;11.93;;;;;;;22.42;65.96;100927.06;4918953;28;124113;-64
2021/07/14 05:03:51;;;;;;;21.17;12.35;;;;;;;22.41;65.94;100933.44;4916903;28;123846;-64
2021/07/14 05:06:19;;;;;;;21.67;11.85;;;;;;;22.42;65.99;100927.06;4906873;28;115302;-64
2021/07/14 05:08:46;;;;;;;23.20;12.77;;;;;;;22.42;66.00;100936.00;4914291;28;115344;-63
2021/07/14 05:11:14;;;;;;;21.80;12.60;;;;;;;22.43;65.87;100934.13;4926137;28;124234;-63
2021/07/14 05:13:42;;;;;;;24.92;12.60;;;;;;;22.42;66.06;100933.28;4926833;28;124026;-63
2021/07/14 05:16:09;;;;;;;24.10;12.75;;;;;;;22.44;65.94;100946.66;4925386;28;113456;-64
2021/07/14 05:18:37;;;;;;;23.95;13.00;;;;;;;22.44;65.82;100941.25;4921327;28;113114;-63
2021/07/14 05:21:05;;;;;;;21.65;12.50;;;;;;;22.44;65.94;100930.47;4920831;28;124896;-64
2021/07/14 05:23:33;;;;;;;23.20;12.15;;;;;;;22.43;65.80;100939.53;4919943;28;123650;-63
2021/07/14 05:26:01;;;;;;;22.00;12.63;;;;;;;22.43;65.96;100936.84;4916450;28;114609;-64
2021/07/14 05:28:28;;;;;;;20.10;11.73;;;;;;;22.44;65.88;100946.66;4917885;28;114225;-64
2021/07/14 05:30:55;;;;;;;20.52;11.90;;;;;;;22.46;65.97;100940.09;4910919;28;124119;-63
2021/07/14 05:33:23;;;;;;;23.42;12.32;;;;;;;22.47;65.93;100946.34;4901306;28;123236;-63
2021/07/14 05:35:54;;;;;;;22.27;12.40;;;;;;;22.47;65.81;100947.22;4922931;28;114168;-64
2021/07/14 05:38:21;;;;;;;22.83;12.32;;;;;;;22.47;65.82;100951.75;4921198;28;114667;-64
2021/07/14 05:40:50;;;;;;;20.50;12.50;;;;;;;22.46;65.71;100956.28;4924994;28;124018;-63
2021/07/14 05:43:18;;;;;;;21.75;13.13;;;;;;;22.46;65.83;100955.44;4929905;28;122983;-64
2021/07/14 05:45:46;;;;;;;22.77;13.13;;;;;;;22.48;65.88;100964.25;4910985;28;112835;-63
2021/07/14 05:48:14;;;;;;;20.85;11.90;;;;;;;22.51;65.86;100963.97;4920378;28;114254;-63
2021/07/14 05:50:42;;;;;;;24.15;12.93;;;;;;;22.51;65.76;100958.59;4957464;23;123541;-66
2021/07/14 05:53:09;;;;;;;21.48;11.95;;;;;;;22.51;65.95;100963.97;4953019;28;123224;-66
2021/07/14 05:55:37;;;;;;;21.10;11.95;;;;;;;22.51;65.65;100961.28;4953316;28;114306;-65
2021/07/14 05:58:04;;;;;;;21.13;12.63;;;;;;;22.50;65.51;100967.66;4946830;28;113808;-66
2021/07/14 06:00:32;;;;;;;21.10;12.32;;;;;;;22.51;65.65;100974.78;4933781;28;124580;-65
2021/07/14 06:03:00;;;;;;;21.95;11.93;;;;;;;22.51;65.64;100972.06;4932043;28;123732;-66
2021/07/14 06:05:32;;;;;;;24.48;12.50;;;;;;;22.51;65.52;100969.38;4933901;28;113953;-67
2021/07/14 06:07:59;;;;;;;22.75;13.00;;;;;;;22.49;65.48;100971.34;4936626;28;113300;-66
2021/07/14 06:10:27;;;;;;;22.77;13.13;;;;;;;22.48;65.54;100977.75;4933676;28;124051;-66
2021/07/14 06:12:56;;;;;;;21.42;12.82;;;;;;;22.48;65.61;100975.06;4932780;28;124734;-68
2021/07/14 06:15:24;;;;;;;20.40;12.70;;;;;;;22.48;65.58;100980.44;4918609;28;113731;-69
2021/07/14 06:17:52;;;;;;;21.33;12.70;;;;;;;22.48;65.54;100975.06;4934087;28;113904;-69
2021/07/14 06:20:19;;;;;;;19.50;12.27;;;;;;;22.49;65.52;100972.22;4933169;28;123538;-69
2021/07/14 06:22:47;;;;;;;19.30;12.52;;;;;;;22.49;65.67;100972.22;4942839;28;123607;-69
2021/07/14 06:25:15;;;;;;;21.45;12.13;;;;;;;22.50;65.70;100964.97;4933424;28;114010;-70
2021/07/14 06:27:44;;;;;;;20.38;12.18;;;;;;;22.48;65.58;100964.25;4933879;28;114053;-71
2021/07/14 06:30:13;;;;;;;22.35;12.40;;;;;;;22.49;65.86;100971.34;4931484;28;124501;-70
2021/07/14 06:32:42;;;;;;;22.63;12.60;;;;;;;22.51;65.66;100969.38;4949751;28;123166;-69
2021/07/14 06:35:11;;;;;;;21.20;12.80;;;;;;;22.51;65.64;100969.38;4934711;28;114118;-69
2021/07/14 06:37:39;;;;;;;20.77;12.13;;;;;;;22.51;65.56;100969.38;4931826;28;114726;-69
2021/07/14 06:40:09;;;;;;;23.88;12.93;;;;;;;22.51;65.75;100969.38;4920015;28;124105;-69
2021/07/14 06:42:38;;;;;;;23.30;13.40;;;;;;;22.51;65.58;100969.38;4956167;28;123125;-69
2021/07/14 06:45:06;;;;;;;22.20;12.43;;;;;;;22.51;65.63;100963.97;4933783;28;115133;-69
2021/07/14 06:47:34;;;;;;;19.58;11.57;;;;;;;22.51;65.72;100974.78;4941484;28;115373;-69
2021/07/14 06:50:06;;;;;;;21.65;12.40;;;;;;;22.50;65.72;100973.06;4952050;28;124603;-69
2021/07/14 06:52:33;;;;;;;20.92;11.73;;;;;;;22.52;65.70;100965.66;4933730;28;123679;-69
2021/07/14 06:55:01;;;;;;;19.33;12.70;;;;;;;22.53;65.78;100972.78;4936397;28;115027;-69
2021/07/14 06:57:28;;;;;;;21.77;13.02;;;;;;;22.53;65.64;100972.78;4928814;28;113839;-69
2021/07/14 06:59:55;;;;;;;20.23;12.40;;;;;;;22.54;65.83;100974.47;4940916;28;124866;-69
2021/07/14 07:02:23;;;;;;;20.90;13.20;;;;;;;22.55;65.94;100970.78;4939674;28;124379;-69
2021/07/14 07:04:50;;;;;;;22.10;12.93;;;;;;;22.59;65.90;100977.59;4936334;28;114266;-69
2021/07/14 07:07:17;;;;;;;23.73;13.02;;;;;;;22.60;65.89;100973.88;4937067;28;114347;-70
2021/07/14 07:09:45;;;;;;;22.70;13.43;;;;;;;22.63;66.04;100984.41;4937929;28;123901;-70
2021/07/14 07:12:12;;;;;;;24.25;14.40;;;;;;;22.65;65.96;100977.00;4933609;28;123283;-69
2021/07/14 07:14:42;;;;;;;26.92;14.07;;;;;;;22.67;66.10;100975.00;4939407;28;114649;-69
2021/07/14 07:17:10;;;;;;;21.80;14.45;;;;;;;22.69;65.96;100973.03;4936602;28;113653;-69
2021/07/14 07:19:37;;;;;;;22.65;14.20;;;;;;;22.69;65.90;100967.63;4932459;28;124929;-70
2021/07/14 07:22:05;;;;;;;23.85;13.98;;;;;;;22.71;65.89;100967.47;4933204;28;123175;-69
2021/07/14 07:24:33;;;;;;;25.15;14.55;;;;;;;22.72;65.92;100971.91;4930360;28;114313;-70
2021/07/14 07:27:00;;;;;;;28.05;15.05;;;;;;;22.72;66.00;100967.34;4956975;28;114441;-69
2021/07/14 07:29:29;;;;;;;27.02;14.05;;;;;;;22.71;65.85;100976.44;4923253;28;124730;-70
2021/07/14 07:31:56;;;;;;;26.02;14.07;;;;;;;22.71;65.93;100971.03;4928245;28;123903;-70
2021/07/14 07:34:23;;;;;;;23.90;14.10;;;;;;;22.69;65.76;100978.41;4913752;28;115402;-70
2021/07/14 07:36:51;;;;;;;22.50;13.68;;;;;;;22.67;65.76;100966.91;4925437;28;115488;-70
2021/07/14 07:39:19;;;;;;;22.25;13.00;;;;;;;22.66;66.00;100962.53;4920887;28;124477;-70
2021/07/14 07:41:48;;;;;;;23.88;13.30;;;;;;;22.66;65.89;100957.13;4933625;28;123036;-69
2021/07/14 07:44:16;;;;;;;21.15;13.45;;;;;;;22.67;65.92;100963.38;4943290;28;114201;-70
2021/07/14 07:46:43;;;;;;;21.17;12.13;;;;;;;22.67;65.82;100969.63;4936581;28;112884;-69
2021/07/14 07:49:11;;;;;;;22.90;12.88;;;;;;;22.66;65.84;100961.66;4942787;28;124369;-70
2021/07/14 07:51:38;;;;;;;23.55;13.60;;;;;;;22.64;65.89;100969.94;4936401;28;124320;-69
2021/07/14 07:54:06;;;;;;;21.00;12.75;;;;;;;22.63;65.76;100960.09;4943061;28;113431;-70
2021/07/14 07:56:33;;;;;;;26.95;13.75;;;;;;;22.65;65.84;100965.38;4934347;28;114579;-70
2021/07/14 07:59:02;;;;;;;23.77;14.00;;;;;;;22.63;65.87;100962.81;4927668;28;123793;-70
2021/07/14 08:01:36;;;;;;;22.38;12.52;;;;;;;22.63;65.75;100970.91;4930744;28;123859;-70
2021/07/14 08:04:05;;;;;;;21.08;12.23;;;;;;;22.62;65.83;100971.91;4943973;28;114520;-70
2021/07/14 08:06:32;;;;;;;20.70;12.25;;;;;;;22.61;65.91;100970.22;4933146;28;114223;-70
2021/07/14 08:09:00;;;;;;;23.10;12.75;;;;;;;22.61;65.82;100981.00;4937637;28;124637;-70
2021/07/14 08:11:27;;;;;;;22.33;12.52;;;;;;;22.60;65.73;100973.03;4933031;28;124170;-70
2021/07/14 08:13:56;;;;;;;21.60;12.82;;;;;;;22.58;65.69;100970.47;4934432;28;114711;-70
2021/07/14 08:16:23;;;;;;;22.63;12.88;;;;;;;22.55;65.83;100965.38;4942037;28;114400;-70
2021/07/14 08:18:51;;;;;;;22.95;12.88;;;;;;;22.56;65.71;100977.88;4935305;28;125002;-70
2021/07/14 08:21:18;;;;;;;24.73;12.70;;;;;;;22.55;65.86;100971.63;4937996;28;123894;-70
2021/07/14 08:23:46;;;;;;;22.98;13.43;;;;;;;22.55;65.79;100976.19;4930869;28;114231;-70
2021/07/14 08:26:13;;;;;;;21.75;12.80;;;;;;;22.51;65.91;100975.63;4931307;28;115371;-70
2021/07/14 08:28:41;;;;;;;23.40;13.05;;;;;;;22.52;65.84;100965.66;4926266;28;123944;-70
2021/07/14 08:31:09;;;;;;;23.42;12.85;;;;;;;22.50;65.86;100968.50;4925095;28;124263;-70
2021/07/14 08:33:36;;;;;;;25.38;13.50;;;;;;;22.50;65.83;100962.25;4926940;28;114350;-70
2021/07/14 08:36:04;;;;;;;24.30;13.45;;;;;;;22.48;65.82;100961.56;4945539;28;113164;-70
2021/07/14 08:38:31;;;;;;;25.55;13.50;;;;;;;22.46;65.71;100964.41;4929649;28;124125;-70
2021/07/14 08:41:00;;;;;;;24.90;14.40;;;;;;;22.45;65.78;100967.22;4944767;28;122851;-70
2021/07/14 08:43:32;;;;;;;25.98;14.13;;;;;;;22.43;65.74;100971.91;4951628;28;115068;-70
2021/07/14 08:46:02;;;;;;;24.73;14.20;;;;;;;22.39;65.95;100960.56;4926720;28;114134;-71
2021/07/14 08:48:31;;;;;;;24.35;13.60;;;;;;;22.37;65.81;100969.81;4946112;28;124756;-71
2021/07/14 08:50:59;;;;;;;26.67;14.77;;;;;;;22.34;65.85;100963.69;4943039;28;123962;-71
2021/07/14 08:53:28;;;;;;;25.67;14.35;;;;;;;22.30;65.93;100959.59;4934365;28;114439;-71
2021/07/14 08:55:57;;;;;;;25.85;14.30;;;;;;;22.28;65.90;100958.88;4932319;28;113772;-70
2021/07/14 08:58:25;;;;;;;26.08;15.10;;;;;;;22.27;65.95;100957.16;4933317;28;124117;-71
2021/07/14 09:00:56;;;;;;;27.75;15.55;;;;;;;22.25;65.98;100958.28;4929837;28;124043;-71
2021/07/14 09:03:25;;;;;;;28.85;14.90;;;;;;;22.24;66.03;100957.41;4931172;28;115130;-71
2021/07/14 09:05:53;;;;;;;27.27;15.07;;;;;;;22.22;66.00;100964.78;4930602;28;113931;-71
2021/07/14 09:08:20;;;;;;;28.08;15.82;;;;;;;22.21;66.09;100963.09;4932564;28;124934;-71
2021/07/14 09:10:50;;;;;;;28.27;15.40;;;;;;;22.18;66.03;100968.78;4930940;28;124652;-71
2021/07/14 09:13:18;;;;;;;31.40;16.10;;;;;;;22.19;65.97;100966.91;4948438;28;114447;-71
2021/07/14 09:15:48;;;;;;;30.63;15.88;;;;;;;22.16;66.00;100965.38;4932813;28;115723;-70
2021/07/14 09:18:20;;;;;;;34.08;16.83;;;;;;;22.14;66.00;100975.44;4933050;28;124401;-70
2021/07/14 09:20:48;;;;;;;33.30;16.55;;;;;;;22.12;66.04;100978.28;4930096;28;123762;-71
2021/07/14 09:23:18;;;;;;;29.85;16.25;;;;;;;22.12;66.17;100980.13;4933039;28;114547;-71
2021/07/14 09:25:48;;;;;;;28.65;15.68;;;;;;;22.13;66.22;100976.44;4932075;28;114053;-70
2021/07/14 09:28:21;;;;;;;28.95;15.88;;;;;;;22.12;66.15;100980.13;4932681;28;124107;-71
2021/07/14 09:30:56;;;;;;;31.33;16.35;;;;;;;22.10;66.24;100982.13;4930474;28;124286;-71
2021/07/14 09:33:23;;;;;;;33.30;15.52;;;;;;;22.10;66.10;100976.72;4920888;28;114665;-70
2021/07/14 09:35:53;;;;;;;36.97;17.48;;;;;;;22.10;66.16;100976.72;4913314;28;114332;-71
2021/07/14 09:38:25;;;;;;;36.58;17.40;;;;;;;22.09;66.19;100980.41;4938074;28;123522;-72
2021/07/14 09:40:56;;;;;;;37.15;17.85;;;;;;;22.08;66.13;100973.31;4930909;28;123955;-70
2021/07/14 09:43:38;;;;;;;33.72;16.95;;;;;;;22.05;66.14;100973.59;4961870;28;113530;-71
2021/07/14 09:46:07;;;;;;;38.97;18.88;;;;;;;22.05;66.21;100979.00;4943382;28;114180;-70
2021/07/14 09:48:44;;;;;;;35.45;17.65;;;;;;;22.04;66.30;100966.47;4946818;28;124148;-71
2021/07/14 09:51:23;;;;;;;36.63;18.05;;;;;;;22.05;66.40;100971.75;4933062;28;124236;-71
2021/07/14 09:53:55;;;;;;;36.90;17.52;;;;;;;22.04;66.31;100982.66;4917660;28;115015;-71
2021/07/14 09:56:28;;;;;;;35.03;17.63;;;;;;;22.05;66.08;100989.78;4933702;28;113857;-71
2021/07/14 09:59:05;;;;;;;41.17;17.80;;;;;;;22.04;66.31;100983.53;4924021;28;124427;-70
2021/07/14 10:01:45;;;;;;;35.13;17.25;;;;;;;22.04;66.24;100988.06;4933612;28;124241;-71
2021/07/14 10:04:24;;;;;;;36.10;17.42;;;;;;;22.00;66.23;100982.13;4946312;28;114167;-71
2021/07/14 10:07:10;;;;;;;38.05;17.48;;;;;;;21.99;66.43;100995.75;4931201;28;114005;-70
2021/07/14 10:09:39;;;;;;;34.58;17.30;;;;;;;21.99;66.36;100990.34;4923435;28;124418;-71
2021/07/14 10:12:29;;;;;;;34.67;17.55;;;;;;;21.97;66.28;100994.03;4947808;28;124461;-70
2021/07/14 10:15:18;;;;;;;33.53;17.13;;;;;;;21.98;66.36;100994.88;4928366;28;114948;-70
2021/07/14 10:18:45;;;;;;;34.25;16.48;;;;;;;21.98;66.40;100984.06;4935421;28;114469;-71
2021/07/14 10:21:18;;;;;;;33.35;16.48;;;;;;;22.00;66.27;100992.91;4931266;28;123846;-67
2021/07/14 10:23:46;;;;;;;33.13;16.00;;;;;;;22.00;66.44;100992.03;4942174;28;123263;-67
2021/07/14 10:26:13;;;;;;;34.35;16.55;;;;;;;22.01;66.52;100988.38;4935316;28;114352;-67
2021/07/14 10:28:42;;;;;;;32.92;16.40;;;;;;;22.01;66.51;100988.38;4931808;28;113166;-68
2021/07/14 10:31:09;;;;;;;29.77;15.93;;;;;;;22.03;66.51;100986.38;4933148;28;124147;-67
2021/07/14 10:33:38;;;;;;;30.48;15.65;;;;;;;22.04;66.66;100996.16;4924560;28;124007;-67
2021/07/14 10:36:07;;;;;;;31.70;16.65;;;;;;;22.06;66.63;100991.50;4932838;28;114330;-68
2021/07/14 10:38:37;;;;;;;31.17;16.25;;;;;;;22.05;66.49;100990.63;4933760;28;114090;-67
2021/07/14 10:41:07;;;;;;;31.02;15.38;;;;;;;22.08;66.59;100984.97;4933954;28;124463;-67
2021/07/14 10:43:34;;;;;;;34.78;16.40;;;;;;;22.09;66.62;100988.50;4923761;28;124249;-67
2021/07/14 10:46:23;;;;;;;29.98;15.68;;;;;;;22.11;66.58;100983.81;4944287;28;114104;-67
2021/07/14 10:48:52;;;;;;;31.50;15.75;;;;;;;22.13;66.65;100987.22;4934321;28;114185;-67
2021/07/14 10:51:25;;;;;;;30.23;15.52;;;;;;;22.13;66.56;100981.81;4935462;28;123424;-67
2021/07/14 10:53:58;;;;;;;28.85;15.07;;;;;;;22.13;66.48;100976.44;4931001;28;123734;-67
2021/07/14 10:56:28;;;;;;;28.55;15.40;;;;;;;22.15;66.70;100969.91;4932633;28;115794;-67
2021/07/14 10:58:56;;;;;;;30.27;15.95;;;;;;;22.17;66.69;100972.47;4934355;28;115323;-67
2021/07/14 11:01:44;;;;;;;30.45;15.38;;;;;;;22.18;66.71;100963.38;4932102;28;127047;-67
2021/07/14 11:04:27;;;;;;;28.63;15.25;;;;;;;22.19;66.68;100970.50;4933018;28;123977;-68
2021/07/14 11:06:55;;;;;;;29.48;15.32;;;;;;;22.21;66.76;100973.91;4949850;28;113123;-67
2021/07/14 11:09:32;;;;;;;28.88;15.35;;;;;;;22.23;66.77;100971.91;4933407;28;113974;-67
2021/07/14 11:12:00;;;;;;;27.60;15.00;;;;;;;22.27;66.75;100973.34;4929007;28;124067;-67
2021/07/14 11:14:41;;;;;;;28.55;14.57;;;;;;;22.28;66.75;100975.06;4931746;28;124063;-67
2021/07/14 11:17:11;;;;;;;27.83;15.05;;;;;;;22.31;66.71;100980.16;4930347;28;114341;-67
2021/07/14 11:19:49;;;;;;;28.08;15.05;;;;;;;22.33;66.64;100978.19;4931303;28;113880;-67
2021/07/14 11:22:35;;;;;;;27.67;14.88;;;;;;;22.37;66.69;100983.31;4931112;28;124226;-67